sensor_id;sensor_type;location;lat;lon;timestamp;pressure;altitude;pressure_sealevel;temperature;humidity
7754;BME280;3921;42.266;23.122;2023-01-30T00:01:38;95638.78;;;1.95;65.43
7754;BME280;3921;42.266;23.122;2023-01-30T00:04:05;95836.06;;;3.28;65.86
7754;BME280;3921;42.266;23.122;2023-01-30T00:06:34;95947.56;;;4.08;65.69
7754;BME280;3921;42.266;23.122;2023-01-30T00:09:01;95865.59;;;3.49;64.92
7754;BME280;3921;42.266;23.122;2023-01-30T00:11:28;95788.28;;;3.07;64.71
7754;BME280;3921;42.266;23.122;2023-01-30T00:13:58;95847.16;;;3.41;64.90
7754;BME280;3921;42.266;23.122;2023-01-30T00:16:25;95952.53;;;4.08;64.84
7754;BME280;3921;42.266;23.122;2023-01-30T00:18:53;95788.31;;;2.78;65.62
7754;BME280;3921;42.266;23.122;2023-01-30T00:21:20;95823.31;;;3.16;65.55
7754;BME280;3921;42.266;23.122;2023-01-30T00:23:48;95713.00;;;2.48;65.86
7754;BME280;3921;42.266;23.122;2023-01-30T00:26:15;95603.84;;;1.60;65.95
7754;BME280;3921;42.266;23.122;2023-01-30T00:28:42;95544.78;;;1.44;66.02
7754;BME280;3921;42.266;23.122;2023-01-30T00:31:09;95843.50;;;3.28;65.28
7754;BME280;3921;42.266;23.122;2023-01-30T00:33:37;95927.06;;;3.85;66.04
7754;BME280;3921;42.266;23.122;2023-01-30T00:36:05;95845.25;;;3.32;66.04
7754;BME280;3921;42.266;23.122;2023-01-30T00:38:32;95554.72;;;1.46;66.45
7754;BME280;3921;42.266;23.122;2023-01-30T00:41:00;95788.78;;;2.95;67.10
7754;BME280;3921;42.266;23.122;2023-01-30T00:43:27;95793.38;;;2.81;66.58
7754;BME280;3921;42.266;23.122;2023-01-30T00:46:14;95830.66;;;3.13;66.74
7754;BME280;3921;42.266;23.122;2023-01-30T00:49:00;95876.13;;;3.40;66.99
7754;BME280;3921;42.266;23.122;2023-01-30T00:51:27;95841.72;;;3.24;66.70
7754;BME280;3921;42.266;23.122;2023-01-30T00:53:54;95829.97;;;3.18;66.48
7754;BME280;3921;42.266;23.122;2023-01-30T00:56:22;95739.00;;;2.60;66.29
7754;BME280;3921;42.266;23.122;2023-01-30T00:58:49;95783.44;;;2.81;65.72
7754;BME280;3921;42.266;23.122;2023-01-30T01:01:16;95801.19;;;2.95;66.14
7754;BME280;3921;42.266;23.122;2023-01-30T01:03:43;95848.66;;;3.34;65.92
7754;BME280;3921;42.266;23.122;2023-01-30T01:06:10;95944.97;;;4.05;65.33
7754;BME280;3921;42.266;23.122;2023-01-30T01:08:37;95486.53;;;1.28;64.93
7754;BME280;3921;42.266;23.122;2023-01-30T01:11:04;95855.38;;;3.38;65.66
7754;BME280;3921;42.266;23.122;2023-01-30T01:13:32;95643.00;;;2.28;65.56
7754;BME280;3921;42.266;23.122;2023-01-30T01:15:59;95805.81;;;3.13;65.62
7754;BME280;3921;42.266;23.122;2023-01-30T01:18:26;95809.13;;;3.12;64.90
7754;BME280;3921;42.266;23.122;2023-01-30T01:20:53;95864.97;;;3.56;65.18
7754;BME280;3921;42.266;23.122;2023-01-30T01:23:20;95812.22;;;3.35;65.00
7754;BME280;3921;42.266;23.122;2023-01-30T01:25:47;95764.56;;;3.16;64.28
7754;BME280;3921;42.266;23.122;2023-01-30T01:28:14;95577.91;;;2.05;64.29
7754;BME280;3921;42.266;23.122;2023-01-30T01:30:47;95408.13;;;0.99;64.91
7754;BME280;3921;42.266;23.122;2023-01-30T01:33:14;95781.50;;;3.31;64.76
7754;BME280;3921;42.266;23.122;2023-01-30T01:35:41;95807.38;;;3.39;64.60
7754;BME280;3921;42.266;23.122;2023-01-30T01:38:08;95471.75;;;1.31;65.16
7754;BME280;3921;42.266;23.122;2023-01-30T01:40:35;95584.25;;;1.95;65.86
7754;BME280;3921;42.266;23.122;2023-01-30T01:43:22;95872.91;;;3.75;66.08
7754;BME280;3921;42.266;23.122;2023-01-30T01:45:55;95744.69;;;2.86;66.25
7754;BME280;3921;42.266;23.122;2023-01-30T01:48:27;95781.97;;;3.18;66.12
7754;BME280;3921;42.266;23.122;2023-01-30T01:50:56;95788.47;;;3.14;66.46
7754;BME280;3921;42.266;23.122;2023-01-30T01:53:28;95582.47;;;1.91;66.61
7754;BME280;3921;42.266;23.122;2023-01-30T01:55:59;95793.97;;;3.33;66.25
7754;BME280;3921;42.266;23.122;2023-01-30T01:58:29;95560.53;;;2.05;65.78
7754;BME280;3921;42.266;23.122;2023-01-30T02:01:01;95794.88;;;3.36;65.57
7754;BME280;3921;42.266;23.122;2023-01-30T02:03:29;95800.81;;;3.41;65.27
7754;BME280;3921;42.266;23.122;2023-01-30T02:06:00;95879.63;;;4.10;65.02
7754;BME280;3921;42.266;23.122;2023-01-30T02:08:31;95371.09;;;1.02;65.12
7754;BME280;3921;42.266;23.122;2023-01-30T02:11:05;95465.22;;;1.62;64.30
7754;BME280;3921;42.266;23.122;2023-01-30T02:13:34;95706.31;;;2.75;65.55
7754;BME280;3921;42.266;23.122;2023-01-30T02:16:04;95436.94;;;1.25;64.94
7754;BME280;3921;42.266;23.122;2023-01-30T02:18:34;95822.75;;;3.56;65.50
7754;BME280;3921;42.266;23.122;2023-01-30T02:33:11;95881.56;;;3.89;66.71
7754;BME280;3921;42.266;23.122;2023-01-30T02:35:50;95662.22;;;2.65;66.53
7754;BME280;3921;42.266;23.122;2023-01-30T02:38:29;95778.19;;;3.32;66.08
7754;BME280;3921;42.266;23.122;2023-01-30T02:41:10;95848.91;;;3.75;65.14
7754;BME280;3921;42.266;23.122;2023-01-30T02:43:44;95795.59;;;3.32;64.81
7754;BME280;3921;42.266;23.122;2023-01-30T02:46:16;95595.66;;;2.19;65.75
7754;BME280;3921;42.266;23.122;2023-01-30T02:48:47;95719.00;;;2.84;65.34
7754;BME280;3921;42.266;23.122;2023-01-30T02:51:20;95752.81;;;3.11;65.96
7754;BME280;3921;42.266;23.122;2023-01-30T02:53:49;95695.94;;;2.58;66.12
7754;BME280;3921;42.266;23.122;2023-01-30T02:56:16;95790.97;;;3.14;65.80
7754;BME280;3921;42.266;23.122;2023-01-30T02:58:47;95779.22;;;3.09;66.13
7754;BME280;3921;42.266;23.122;2023-01-30T03:01:42;95803.25;;;3.40;66.09
7754;BME280;3921;42.266;23.122;2023-01-30T03:04:29;95485.78;;;1.31;65.12
7754;BME280;3921;42.266;23.122;2023-01-30T03:07:15;95520.94;;;1.48;66.07
7754;BME280;3921;42.266;23.122;2023-01-30T03:09:50;95758.97;;;3.25;65.17
7754;BME280;3921;42.266;23.122;2023-01-30T03:12:25;95634.09;;;2.34;66.10
7754;BME280;3921;42.266;23.122;2023-01-30T03:14:58;95529.56;;;1.60;66.33
7754;BME280;3921;42.266;23.122;2023-01-30T03:17:27;95599.66;;;2.15;66.24
7754;BME280;3921;42.266;23.122;2023-01-30T03:19:57;95879.72;;;3.82;66.06
7754;BME280;3921;42.266;23.122;2023-01-30T03:22:24;95755.91;;;3.04;65.62
7754;BME280;3921;42.266;23.122;2023-01-30T03:24:52;95730.75;;;2.91;66.10
7754;BME280;3921;42.266;23.122;2023-01-30T03:27:20;95864.78;;;3.80;65.89
7754;BME280;3921;42.266;23.122;2023-01-30T03:29:48;95729.19;;;2.93;65.39
7754;BME280;3921;42.266;23.122;2023-01-30T03:32:15;95447.66;;;1.26;65.50
7754;BME280;3921;42.266;23.122;2023-01-30T03:34:42;95529.34;;;1.53;65.53
7754;BME280;3921;42.266;23.122;2023-01-30T03:37:10;95798.13;;;3.34;65.75
7754;BME280;3921;42.266;23.122;2023-01-30T03:39:37;95676.41;;;2.40;65.21
7754;BME280;3921;42.266;23.122;2023-01-30T03:42:04;95705.28;;;2.67;65.58
7754;BME280;3921;42.266;23.122;2023-01-30T03:44:31;95698.88;;;2.75;64.68
7754;BME280;3921;42.266;23.122;2023-01-30T03:46:59;95775.97;;;3.10;64.65
7754;BME280;3921;42.266;23.122;2023-01-30T03:49:25;95746.91;;;3.07;64.80
7754;BME280;3921;42.266;23.122;2023-01-30T03:51:52;95746.25;;;3.13;64.40
7754;BME280;3921;42.266;23.122;2023-01-30T03:54:21;95746.19;;;3.10;64.20
7754;BME280;3921;42.266;23.122;2023-01-30T03:56:48;95864.09;;;3.86;64.51
7754;BME280;3921;42.266;23.122;2023-01-30T03:59:15;95807.84;;;3.56;64.21
7754;BME280;3921;42.266;23.122;2023-01-30T04:01:44;95821.69;;;3.48;64.01
7754;BME280;3921;42.266;23.122;2023-01-30T04:04:11;95513.81;;;1.58;64.18
7754;BME280;3921;42.266;23.122;2023-01-30T04:06:38;95678.84;;;2.69;64.58
7754;BME280;3921;42.266;23.122;2023-01-30T04:09:05;95757.25;;;3.23;64.84
7754;BME280;3921;42.266;23.122;2023-01-30T04:11:34;95546.44;;;1.72;64.38
7754;BME280;3921;42.266;23.122;2023-01-30T04:14:01;95731.69;;;2.95;64.67
7754;BME280;3921;42.266;23.122;2023-01-30T04:16:28;95704.63;;;2.74;64.57
7754;BME280;3921;42.266;23.122;2023-01-30T04:18:55;95828.78;;;3.66;64.58
7754;BME280;3921;42.266;23.122;2023-01-30T04:21:21;95735.13;;;2.99;64.55
7754;BME280;3921;42.266;23.122;2023-01-30T04:23:49;95590.47;;;2.11;64.60
7754;BME280;3921;42.266;23.122;2023-01-30T04:26:16;95608.78;;;2.16;64.87
7754;BME280;3921;42.266;23.122;2023-01-30T04:28:44;95701.75;;;2.89;64.66
7754;BME280;3921;42.266;23.122;2023-01-30T04:31:11;95819.66;;;3.66;64.48
7754;BME280;3921;42.266;23.122;2023-01-30T04:33:38;95735.56;;;3.15;65.22
7754;BME280;3921;42.266;23.122;2023-01-30T04:36:07;95827.91;;;3.64;64.82
7754;BME280;3921;42.266;23.122;2023-01-30T04:38:35;95751.41;;;3.20;63.94
7754;BME280;3921;42.266;23.122;2023-01-30T04:41:02;95740.69;;;2.91;63.91
7754;BME280;3921;42.266;23.122;2023-01-30T04:43:30;95810.94;;;3.49;64.33
7754;BME280;3921;42.266;23.122;2023-01-30T04:45:58;95573.84;;;2.07;64.19
7754;BME280;3921;42.266;23.122;2023-01-30T04:48:25;95871.84;;;3.66;63.74
7754;BME280;3921;42.266;23.122;2023-01-30T04:50:54;95646.84;;;2.47;64.21
7754;BME280;3921;42.266;23.122;2023-01-30T04:53:21;95759.00;;;3.27;63.26
7754;BME280;3921;42.266;23.122;2023-01-30T04:55:49;95260.91;;;0.26;62.93
7754;BME280;3921;42.266;23.122;2023-01-30T04:58:16;95491.69;;;1.65;63.56
7754;BME280;3921;42.266;23.122;2023-01-30T05:00:45;95633.16;;;2.61;62.58
7754;BME280;3921;42.266;23.122;2023-01-30T05:03:14;95734.69;;;3.15;62.95
7754;BME280;3921;42.266;23.122;2023-01-30T05:05:41;95651.81;;;2.47;62.58
7754;BME280;3921;42.266;23.122;2023-01-30T05:08:11;95490.00;;;1.33;63.61
7754;BME280;3921;42.266;23.122;2023-01-30T05:10:38;95661.59;;;2.42;63.66
7754;BME280;3921;42.266;23.122;2023-01-30T05:13:05;95646.94;;;2.51;63.21
7754;BME280;3921;42.266;23.122;2023-01-30T05:15:32;95735.22;;;3.03;63.18
7754;BME280;3921;42.266;23.122;2023-01-30T05:17:59;95768.31;;;3.34;61.91
7754;BME280;3921;42.266;23.122;2023-01-30T05:20:28;95728.72;;;3.08;62.77
7754;BME280;3921;42.266;23.122;2023-01-30T05:22:55;95576.31;;;2.07;62.95
7754;BME280;3921;42.266;23.122;2023-01-30T05:25:22;95270.75;;;0.24;62.52
7754;BME280;3921;42.266;23.122;2023-01-30T05:27:49;95655.16;;;2.49;62.89
7754;BME280;3921;42.266;23.122;2023-01-30T05:30:16;95714.81;;;2.83;62.97
7754;BME280;3921;42.266;23.122;2023-01-30T05:32:43;95386.03;;;0.76;62.81
7754;BME280;3921;42.266;23.122;2023-01-30T05:35:10;95751.72;;;3.01;63.44
7754;BME280;3921;42.266;23.122;2023-01-30T05:37:40;95659.91;;;2.41;63.32
7754;BME280;3921;42.266;23.122;2023-01-30T05:40:08;95845.94;;;3.57;62.85
7754;BME280;3921;42.266;23.122;2023-01-30T05:42:35;95750.72;;;2.95;62.79
7754;BME280;3921;42.266;23.122;2023-01-30T05:45:02;95736.50;;;2.89;63.20
7754;BME280;3921;42.266;23.122;2023-01-30T05:47:29;95659.44;;;2.54;63.22
7754;BME280;3921;42.266;23.122;2023-01-30T05:49:56;95544.31;;;1.84;62.89
7754;BME280;3921;42.266;23.122;2023-01-30T05:52:23;95831.50;;;3.43;63.36
7754;BME280;3921;42.266;23.122;2023-01-30T05:54:52;95663.06;;;2.35;63.70
7754;BME280;3921;42.266;23.122;2023-01-30T05:57:19;95686.94;;;2.62;63.58
7754;BME280;3921;42.266;23.122;2023-01-30T05:59:46;95732.47;;;2.92;63.71
7754;BME280;3921;42.266;23.122;2023-01-30T06:02:13;95773.91;;;2.97;63.78
7754;BME280;3921;42.266;23.122;2023-01-30T06:04:40;95686.59;;;2.50;63.56
7754;BME280;3921;42.266;23.122;2023-01-30T06:07:06;95736.88;;;2.73;62.85
7754;BME280;3921;42.266;23.122;2023-01-30T06:09:34;95446.09;;;0.99;62.39
7754;BME280;3921;42.266;23.122;2023-01-30T06:12:08;95604.72;;;2.18;61.88
7754;BME280;3921;42.266;23.122;2023-01-30T06:14:45;95703.09;;;2.78;61.96
7754;BME280;3921;42.266;23.122;2023-01-30T06:17:13;95761.63;;;3.00;62.26
7754;BME280;3921;42.266;23.122;2023-01-30T06:19:40;95626.31;;;2.22;62.79
7754;BME280;3921;42.266;23.122;2023-01-30T06:22:07;95391.00;;;0.78;63.09
7754;BME280;3921;42.266;23.122;2023-01-30T06:24:34;95752.38;;;2.96;62.57
7754;BME280;3921;42.266;23.122;2023-01-30T06:27:02;95600.34;;;2.09;62.16
7754;BME280;3921;42.266;23.122;2023-01-30T06:29:29;95635.50;;;2.25;62.64
7754;BME280;3921;42.266;23.122;2023-01-30T06:31:56;95659.97;;;2.43;62.36
7754;BME280;3921;42.266;23.122;2023-01-30T06:34:23;95712.19;;;2.77;62.13
7754;BME280;3921;42.266;23.122;2023-01-30T06:36:50;95722.97;;;2.79;62.54
7754;BME280;3921;42.266;23.122;2023-01-30T06:39:19;95267.16;;;0.15;62.61
7754;BME280;3921;42.266;23.122;2023-01-30T06:41:47;95604.06;;;2.24;63.07
7754;BME280;3921;42.266;23.122;2023-01-30T06:44:16;95680.19;;;2.58;63.14
7754;BME280;3921;42.266;23.122;2023-01-30T06:46:43;95572.09;;;2.04;63.31
7754;BME280;3921;42.266;23.122;2023-01-30T06:49:10;95673.53;;;2.55;63.44
7754;BME280;3921;42.266;23.122;2023-01-30T06:51:37;95816.59;;;3.75;62.48
7754;BME280;3921;42.266;23.122;2023-01-30T06:54:04;95505.38;;;1.52;63.29
7754;BME280;3921;42.266;23.122;2023-01-30T06:56:31;95737.13;;;3.12;63.47
7754;BME280;3921;42.266;23.122;2023-01-30T06:58:58;95727.25;;;2.83;63.65
7754;BME280;3921;42.266;23.122;2023-01-30T07:01:27;95747.00;;;3.10;63.66
7754;BME280;3921;42.266;23.122;2023-01-30T07:03:58;95721.56;;;2.87;63.41
7754;BME280;3921;42.266;23.122;2023-01-30T07:06:26;95726.59;;;2.90;63.30
7754;BME280;3921;42.266;23.122;2023-01-30T07:08:53;95683.66;;;2.63;63.94
7754;BME280;3921;42.266;23.122;2023-01-30T07:11:20;95743.41;;;2.99;63.81
7754;BME280;3921;42.266;23.122;2023-01-30T07:13:47;95720.47;;;2.78;63.87
7754;BME280;3921;42.266;23.122;2023-01-30T07:16:14;95368.63;;;0.73;63.52
7754;BME280;3921;42.266;23.122;2023-01-30T07:18:43;95313.97;;;0.37;63.59
7754;BME280;3921;42.266;23.122;2023-01-30T07:21:10;95281.84;;;0.10;63.84
7754;BME280;3921;42.266;23.122;2023-01-30T07:23:37;95339.53;;;0.38;63.73
7754;BME280;3921;42.266;23.122;2023-01-30T07:26:05;95568.78;;;1.75;63.80
7754;BME280;3921;42.266;23.122;2023-01-30T07:28:32;95282.69;;;0.11;63.92
7754;BME280;3921;42.266;23.122;2023-01-30T07:31:00;95320.50;;;0.35;63.66
7754;BME280;3921;42.266;23.122;2023-01-30T07:33:27;95575.00;;;1.90;63.68
7754;BME280;3921;42.266;23.122;2023-01-30T07:35:55;95742.41;;;2.92;63.06
7754;BME280;3921;42.266;23.122;2023-01-30T07:38:22;95446.47;;;1.13;63.25
7754;BME280;3921;42.266;23.122;2023-01-30T07:40:49;95700.41;;;2.70;63.91
7754;BME280;3921;42.266;23.122;2023-01-30T07:43:16;95839.97;;;3.50;63.63
7754;BME280;3921;42.266;23.122;2023-01-30T07:45:44;95637.81;;;2.49;63.34
7754;BME280;3921;42.266;23.122;2023-01-30T07:48:13;95590.16;;;2.00;63.77
7754;BME280;3921;42.266;23.122;2023-01-30T07:50:41;95684.47;;;2.62;64.00
7754;BME280;3921;42.266;23.122;2023-01-30T07:53:14;95856.91;;;3.65;64.31
7754;BME280;3921;42.266;23.122;2023-01-30T07:55:43;95727.97;;;2.81;63.84
7754;BME280;3921;42.266;23.122;2023-01-30T07:58:12;95482.72;;;1.38;63.58
7754;BME280;3921;42.266;23.122;2023-01-30T08:00:40;95657.59;;;2.47;63.67
7754;BME280;3921;42.266;23.122;2023-01-30T08:03:10;95772.69;;;3.11;63.79
7754;BME280;3921;42.266;23.122;2023-01-30T08:05:38;95873.88;;;3.80;63.19
7754;BME280;3921;42.266;23.122;2023-01-30T08:08:05;95796.03;;;3.17;63.30
7754;BME280;3921;42.266;23.122;2023-01-30T08:10:33;95748.81;;;2.86;63.92
7754;BME280;3921;42.266;23.122;2023-01-30T08:13:00;95750.03;;;3.00;63.53
7754;BME280;3921;42.266;23.122;2023-01-30T08:15:27;95711.78;;;2.63;63.02
7754;BME280;3921;42.266;23.122;2023-01-30T08:17:56;95711.06;;;2.67;63.62
7754;BME280;3921;42.266;23.122;2023-01-30T08:20:25;95578.72;;;2.05;63.00
7754;BME280;3921;42.266;23.122;2023-01-30T08:22:52;95661.97;;;2.56;63.40
7754;BME280;3921;42.266;23.122;2023-01-30T08:25:20;95339.16;;;0.52;63.83
7754;BME280;3921;42.266;23.122;2023-01-30T08:27:49;95781.44;;;3.28;63.23
7754;BME280;3921;42.266;23.122;2023-01-30T08:30:18;95635.84;;;2.38;63.12
7754;BME280;3921;42.266;23.122;2023-01-30T08:32:45;95781.59;;;3.34;62.89
7754;BME280;3921;42.266;23.122;2023-01-30T08:35:12;95558.88;;;1.75;63.77
7754;BME280;3921;42.266;23.122;2023-01-30T08:37:40;95521.47;;;1.66;64.15
7754;BME280;3921;42.266;23.122;2023-01-30T08:40:08;95722.69;;;2.99;64.04
7754;BME280;3921;42.266;23.122;2023-01-30T08:42:36;95778.84;;;3.25;64.06
7754;BME280;3921;42.266;23.122;2023-01-30T08:45:05;95518.16;;;1.66;63.36
7754;BME280;3921;42.266;23.122;2023-01-30T08:47:33;95716.63;;;2.89;63.41
7754;BME280;3921;42.266;23.122;2023-01-30T08:50:00;95333.63;;;0.61;63.51
7754;BME280;3921;42.266;23.122;2023-01-30T08:52:27;95351.47;;;0.51;63.81
7754;BME280;3921;42.266;23.122;2023-01-30T08:54:54;95617.31;;;2.26;64.35
7754;BME280;3921;42.266;23.122;2023-01-30T08:57:22;95357.22;;;0.78;63.39
7754;BME280;3921;42.266;23.122;2023-01-30T08:59:49;95470.59;;;1.49;63.51
7754;BME280;3921;42.266;23.122;2023-01-30T09:02:21;95777.59;;;3.39;63.24
7754;BME280;3921;42.266;23.122;2023-01-30T09:04:48;95273.50;;;0.62;62.30
7754;BME280;3921;42.266;23.122;2023-01-30T09:07:15;95536.53;;;2.02;62.39
7754;BME280;3921;42.266;23.122;2023-01-30T09:09:46;95361.53;;;1.14;62.81
7754;BME280;3921;42.266;23.122;2023-01-30T09:12:14;95175.97;;;-0.06;63.22
7754;BME280;3921;42.266;23.122;2023-01-30T09:14:41;95613.22;;;2.58;63.49
7754;BME280;3921;42.266;23.122;2023-01-30T09:17:09;95696.06;;;3.25;63.31
7754;BME280;3921;42.266;23.122;2023-01-30T09:19:40;95239.31;;;0.47;63.34
7754;BME280;3921;42.266;23.122;2023-01-30T09:22:07;95640.88;;;2.70;63.42
7754;BME280;3921;42.266;23.122;2023-01-30T09:24:34;95680.94;;;3.15;63.73
7754;BME280;3921;42.266;23.122;2023-01-30T09:27:01;95786.16;;;3.84;63.43
7754;BME280;3921;42.266;23.122;2023-01-30T09:29:29;95642.38;;;2.97;63.36
7754;BME280;3921;42.266;23.122;2023-01-30T09:31:56;95432.66;;;1.78;63.17
7754;BME280;3921;42.266;23.122;2023-01-30T09:34:24;95694.00;;;3.41;62.63
7754;BME280;3921;42.266;23.122;2023-01-30T09:36:54;95442.25;;;1.98;62.17
7754;BME280;3921;42.266;23.122;2023-01-30T09:39:21;95784.81;;;3.96;61.46
7754;BME280;3921;42.266;23.122;2023-01-30T09:42:09;95778.41;;;4.06;60.96
7754;BME280;3921;42.266;23.122;2023-01-30T09:44:55;95534.50;;;2.51;61.02
7754;BME280;3921;42.266;23.122;2023-01-30T09:47:35;95722.88;;;3.71;60.55
7754;BME280;3921;42.266;23.122;2023-01-30T09:50:31;95707.81;;;3.65;60.04
7754;BME280;3921;42.266;23.122;2023-01-30T09:53:15;95345.81;;;1.42;60.20
7754;BME280;3921;42.266;23.122;2023-01-30T09:55:44;95560.06;;;2.80;60.63
7754;BME280;3921;42.266;23.122;2023-01-30T09:58:16;95650.06;;;3.39;60.52
7754;BME280;3921;42.266;23.122;2023-01-30T10:00:44;95438.41;;;2.09;59.26
7754;BME280;3921;42.266;23.122;2023-01-30T10:03:15;95546.44;;;2.64;58.55
7754;BME280;3921;42.266;23.122;2023-01-30T10:05:46;95670.69;;;3.36;58.49
7754;BME280;3921;42.266;23.122;2023-01-30T10:08:39;95638.19;;;3.27;59.05
7754;BME280;3921;42.266;23.122;2023-01-30T10:11:18;95536.66;;;2.70;58.67
7754;BME280;3921;42.266;23.122;2023-01-30T10:14:03;95410.47;;;1.83;58.86
7754;BME280;3921;42.266;23.122;2023-01-30T10:16:37;95736.34;;;4.14;59.36
7754;BME280;3921;42.266;23.122;2023-01-30T10:22:00;95502.00;;;2.73;59.76
7754;BME280;3921;42.266;23.122;2023-01-30T10:24:47;95697.84;;;3.98;59.83
7754;BME280;3921;42.266;23.122;2023-01-30T10:27:19;95579.44;;;3.28;59.82
7754;BME280;3921;42.266;23.122;2023-01-30T10:29:48;95246.50;;;1.31;60.10
7754;BME280;3921;42.266;23.122;2023-01-30T10:32:20;95636.50;;;3.61;59.60
7754;BME280;3921;42.266;23.122;2023-01-30T10:34:56;95635.63;;;3.59;59.51
7754;BME280;3921;42.266;23.122;2023-01-30T10:37:30;95668.56;;;3.86;58.98
7754;BME280;3921;42.266;23.122;2023-01-30T10:40:04;95291.66;;;1.54;59.37
7754;BME280;3921;42.266;23.122;2023-01-30T10:42:38;95404.97;;;2.26;59.97
7754;BME280;3921;42.266;23.122;2023-01-30T10:45:12;95381.44;;;2.10;59.85
7754;BME280;3921;42.266;23.122;2023-01-30T10:47:47;95690.88;;;4.19;59.45
7754;BME280;3921;42.266;23.122;2023-01-30T10:50:22;95405.44;;;2.46;59.23
7754;BME280;3921;42.266;23.122;2023-01-30T10:52:57;95393.09;;;2.15;59.85
7754;BME280;3921;42.266;23.122;2023-01-30T10:55:34;95321.91;;;1.74;59.64
7754;BME280;3921;42.266;23.122;2023-01-30T10:58:07;95477.53;;;2.87;59.87
7754;BME280;3921;42.266;23.122;2023-01-30T11:00:41;95321.19;;;1.78;60.19
7754;BME280;3921;42.266;23.122;2023-01-30T11:03:18;95528.75;;;3.19;59.92
7754;BME280;3921;42.266;23.122;2023-01-30T11:05:48;95125.84;;;0.88;60.04
7754;BME280;3921;42.266;23.122;2023-01-30T11:08:21;95494.81;;;3.20;59.96
7754;BME280;3921;42.266;23.122;2023-01-30T11:10:51;95500.22;;;3.38;59.79
7754;BME280;3921;42.266;23.122;2023-01-30T11:13:20;95021.66;;;0.41;59.27
7754;BME280;3921;42.266;23.122;2023-01-30T11:15:52;95396.03;;;2.69;58.88
7754;BME280;3921;42.266;23.122;2023-01-30T11:18:22;95452.53;;;3.15;59.53
7754;BME280;3921;42.266;23.122;2023-01-30T11:21:00;95464.97;;;3.17;59.93
7754;BME280;3921;42.266;23.122;2023-01-30T11:23:33;95473.28;;;3.19;58.95
7754;BME280;3921;42.266;23.122;2023-01-30T11:26:03;95170.06;;;1.42;58.80
7754;BME280;3921;42.266;23.122;2023-01-30T11:28:35;95618.66;;;4.16;58.71
7754;BME280;3921;42.266;23.122;2023-01-30T11:31:16;95558.38;;;3.87;58.33
7754;BME280;3921;42.266;23.122;2023-01-30T11:33:43;95303.84;;;2.13;57.89
7754;BME280;3921;42.266;23.122;2023-01-30T11:36:25;95468.69;;;3.36;57.34
7754;BME280;3921;42.266;23.122;2023-01-30T11:38:56;95593.09;;;4.22;58.29
7754;BME280;3921;42.266;23.122;2023-01-30T11:41:26;95377.66;;;2.97;58.33
7754;BME280;3921;42.266;23.122;2023-01-30T11:43:59;95188.91;;;1.72;58.48
7754;BME280;3921;42.266;23.122;2023-01-30T11:46:30;95281.22;;;2.35;58.20
7754;BME280;3921;42.266;23.122;2023-01-30T11:49:02;95538.97;;;4.10;58.74
7754;BME280;3921;42.266;23.122;2023-01-30T11:51:32;95326.59;;;2.69;58.11
7754;BME280;3921;42.266;23.122;2023-01-30T11:54:02;95187.00;;;1.96;58.32
7754;BME280;3921;42.266;23.122;2023-01-30T11:56:33;95235.75;;;2.35;58.12
7754;BME280;3921;42.266;23.122;2023-01-30T11:59:04;95551.72;;;4.27;57.50
7754;BME280;3921;42.266;23.122;2023-01-30T12:01:33;95454.69;;;3.80;57.41
7754;BME280;3921;42.266;23.122;2023-01-30T12:04:05;95469.03;;;3.93;57.47
7754;BME280;3921;42.266;23.122;2023-01-30T12:06:37;95308.00;;;2.89;57.72
7754;BME280;3921;42.266;23.122;2023-01-30T12:09:05;95278.16;;;2.86;57.07
7754;BME280;3921;42.266;23.122;2023-01-30T12:11:54;95290.03;;;3.00;56.81
7754;BME280;3921;42.266;23.122;2023-01-30T12:14:33;95124.25;;;1.97;56.62
7754;BME280;3921;42.266;23.122;2023-01-30T12:17:07;95206.41;;;2.53;56.32
7754;BME280;3921;42.266;23.122;2023-01-30T12:19:59;95517.44;;;4.56;56.99
7754;BME280;3921;42.266;23.122;2023-01-30T12:22:37;95290.38;;;3.18;56.77
7754;BME280;3921;42.266;23.122;2023-01-30T12:25:13;95318.31;;;3.52;57.08
7754;BME280;3921;42.266;23.122;2023-01-30T12:27:49;95364.91;;;3.62;57.36
7754;BME280;3921;42.266;23.122;2023-01-30T12:30:25;95406.47;;;4.17;56.33
7754;BME280;3921;42.266;23.122;2023-01-30T12:32:57;95566.78;;;4.78;56.35
7754;BME280;3921;42.266;23.122;2023-01-30T12:35:35;95190.44;;;2.83;56.49
7754;BME280;3921;42.266;23.122;2023-01-30T12:38:13;95164.81;;;2.85;56.02
7754;BME280;3921;42.266;23.122;2023-01-30T12:40:53;95412.22;;;4.13;54.86
7754;BME280;3921;42.266;23.122;2023-01-30T12:43:37;95493.91;;;4.87;54.16
7754;BME280;3921;42.266;23.122;2023-01-30T12:46:29;95343.72;;;3.84;53.86
7754;BME280;3921;42.266;23.122;2023-01-30T12:49:25;95487.25;;;4.86;53.79
7754;BME280;3921;42.266;23.122;2023-01-30T12:52:09;95265.28;;;3.50;53.13
7754;BME280;3921;42.266;23.122;2023-01-30T12:54:49;95221.56;;;3.11;54.04
7754;BME280;3921;42.266;23.122;2023-01-30T12:57:28;95399.06;;;4.19;54.31
7754;BME280;3921;42.266;23.122;2023-01-30T13:00:14;95471.03;;;4.58;54.47
7754;BME280;3921;42.266;23.122;2023-01-30T13:02:56;95465.38;;;4.68;53.91
7754;BME280;3921;42.266;23.122;2023-01-30T13:05:34;95024.19;;;1.91;54.02
7754;BME280;3921;42.266;23.122;2023-01-30T13:08:15;95434.28;;;4.43;54.55
7754;BME280;3921;42.266;23.122;2023-01-30T13:10:48;95392.41;;;4.18;54.60
7754;BME280;3921;42.266;23.122;2023-01-30T13:13:23;95247.44;;;3.24;55.02
7754;BME280;3921;42.266;23.122;2023-01-30T13:15:59;94901.59;;;1.26;54.42
7754;BME280;3921;42.266;23.122;2023-01-30T13:18:31;95309.63;;;3.75;54.59
7754;BME280;3921;42.266;23.122;2023-01-30T13:21:06;95332.97;;;3.83;54.65
7754;BME280;3921;42.266;23.122;2023-01-30T13:23:40;95234.19;;;3.23;53.91
7754;BME280;3921;42.266;23.122;2023-01-30T13:26:12;95451.44;;;4.78;54.20
7754;BME280;3921;42.266;23.122;2023-01-30T13:28:45;94931.91;;;1.58;53.73
7754;BME280;3921;42.266;23.122;2023-01-30T13:31:16;94896.19;;;1.46;52.95
7754;BME280;3921;42.266;23.122;2023-01-30T13:33:46;94932.16;;;1.71;52.95
7754;BME280;3921;42.266;23.122;2023-01-30T13:36:17;94826.03;;;1.03;53.66
7754;BME280;3921;42.266;23.122;2023-01-30T13:38:54;95349.34;;;4.20;53.23
7754;BME280;3921;42.266;23.122;2023-01-30T13:41:24;95414.06;;;4.75;53.41
7754;BME280;3921;42.266;23.122;2023-01-30T13:43:52;95318.50;;;4.09;53.87
7754;BME280;3921;42.266;23.122;2023-01-30T13:46:25;95188.97;;;3.39;53.44
7754;BME280;3921;42.266;23.122;2023-01-30T13:49:05;95337.97;;;4.35;53.52
7754;BME280;3921;42.266;23.122;2023-01-30T13:51:44;95169.06;;;3.38;53.21
7754;BME280;3921;42.266;23.122;2023-01-30T13:54:23;95306.38;;;4.29;53.07
7754;BME280;3921;42.266;23.122;2023-01-30T13:56:56;95422.78;;;5.03;52.54